createdAt,value
2023-04-24T00:01:08.852Z,46.12
2023-04-24T00:06:12.441Z,46.77
2023-04-24T00:11:16.071Z,46.24
2023-04-24T00:16:21.204Z,46.70
2023-04-24T00:21:26.921Z,46.69
2023-04-24T00:26:30.452Z,47.26
2023-04-24T00:31:36.041Z,47.06
2023-04-24T00:36:39.783Z,47.77
2023-04-24T00:41:43.291Z,47.62
2023-04-24T00:46:52.899Z,47.33
2023-04-24T00:51:56.466Z,47.25
2023-04-24T00:56:59.987Z,46.80
2023-04-24T01:02:04.855Z,46.94
2023-04-24T01:07:11.796Z,47.79
2023-04-24T01:12:15.362Z,47.45
2023-04-24T01:17:20.366Z,47.66
2023-04-24T01:22:25.460Z,47.44
2023-04-24T01:27:29.200Z,47.44
2023-04-24T01:32:33.380Z,47.47
2023-04-24T01:37:39.405Z,47.61
2023-04-24T01:42:44.136Z,47.37
2023-04-24T01:47:48.389Z,47.46
2023-04-24T01:52:53.298Z,47.79
2023-04-24T01:57:57.690Z,46.93
2023-04-24T02:03:03.087Z,48.22
2023-04-24T02:08:08.152Z,48.61
2023-04-24T02:13:11.343Z,47.95
2023-04-24T02:18:14.829Z,48.10
2023-04-24T02:23:19.714Z,48.21
2023-04-24T02:28:22.960Z,47.46
2023-04-24T02:33:26.405Z,47.64
2023-04-24T02:38:31.470Z,47.68
2023-04-24T02:43:35.206Z,47.55
2023-04-24T02:48:38.693Z,47.04
2023-04-24T02:53:43.662Z,47.38
2023-04-24T02:58:46.899Z,47.79
2023-04-24T03:03:50.855Z,46.89
2023-04-24T03:08:56.018Z,46.71
2023-04-24T03:13:59.512Z,46.45
2023-04-24T03:19:03.669Z,45.94
2023-04-24T03:24:08.650Z,45.69
2023-04-24T03:29:12.229Z,45.92
2023-04-24T03:34:15.719Z,45.08
2023-04-24T03:39:20.779Z,44.00
2023-04-24T03:44:24.309Z,43.44
2023-04-24T03:49:27.860Z,39.29
2023-04-24T03:54:32.726Z,32.64
2023-04-24T03:59:35.936Z,29.69
2023-04-24T04:04:39.653Z,27.45
2023-04-24T04:09:45.010Z,24.55
2023-04-24T04:14:48.662Z,22.71
2023-04-24T04:19:52.225Z,21.50
2023-04-24T04:24:57.654Z,20.08
2023-04-24T04:30:02.610Z,19.32
2023-04-24T04:35:08.619Z,17.68
2023-04-24T04:40:13.839Z,16.50
2023-04-24T04:45:17.912Z,16.41
2023-04-24T04:50:21.990Z,16.53
2023-04-24T04:55:27.020Z,14.27
2023-04-24T05:00:36.181Z,13.85
2023-04-24T05:05:41.690Z,13.28
2023-04-24T05:10:47.319Z,12.90
2023-04-24T05:15:51.050Z,12.44
2023-04-24T05:20:54.570Z,11.91
2023-04-24T05:25:59.671Z,11.49
2023-04-24T05:31:03.607Z,10.80
2023-04-24T05:36:08.864Z,10.77
2023-04-24T05:41:13.723Z,10.94
2023-04-24T05:46:17.269Z,10.73
2023-04-24T05:51:20.814Z,9.72
2023-04-24T05:56:26.651Z,9.01
2023-04-24T06:01:30.813Z,9.29
2023-04-24T06:06:34.334Z,9.24
2023-04-24T06:11:39.341Z,8.75
2023-04-24T06:16:44.801Z,8.55
2023-04-24T06:21:48.475Z,8.55
2023-04-24T06:26:53.355Z,8.34
2023-04-24T06:31:56.843Z,7.65
2023-04-24T06:37:00.610Z,7.17
2023-04-24T06:42:05.712Z,6.27
2023-04-24T06:47:09.902Z,6.76
2023-04-24T06:52:13.630Z,6.56
2023-04-24T06:57:18.696Z,6.47
2023-04-24T07:02:22.438Z,6.39
2023-04-24T07:07:26.141Z,7.36
2023-04-24T07:12:31.132Z,7.17
2023-04-24T07:17:34.664Z,7.67
2023-04-24T07:22:38.156Z,7.09
2023-04-24T07:27:43.092Z,7.60
2023-04-24T07:32:46.715Z,8.75
2023-04-24T07:37:50.659Z,9.14
2023-04-24T07:42:55.558Z,9.64
2023-04-24T07:47:59.252Z,9.20
2023-04-24T07:53:02.932Z,9.84
2023-04-24T07:58:07.858Z,10.20
2023-04-24T08:03:11.714Z,9.49
2023-04-24T08:08:15.916Z,9.08
2023-04-24T08:13:20.978Z,9.45
2023-04-24T08:18:24.901Z,9.40
2023-04-24T08:23:29.996Z,10.62
2023-04-24T08:28:34.914Z,11.80
2023-04-24T08:33:38.405Z,12.52
2023-04-24T08:38:43.217Z,13.79
2023-04-24T08:43:49.585Z,13.42
2023-04-24T08:48:54.142Z,12.96
2023-04-24T08:53:58.763Z,13.32
2023-04-24T08:59:04.425Z,13.39
2023-04-24T09:04:10.126Z,13.76
2023-04-24T09:09:13.945Z,14.53
2023-04-24T09:14:19.067Z,14.13
2023-04-24T09:19:23.583Z,14.55
2023-04-24T09:24:27.127Z,15.42
2023-04-24T09:29:33.988Z,14.76
2023-04-24T09:34:37.528Z,15.25
2023-04-24T09:39:41.366Z,15.58
2023-04-24T09:44:46.725Z,15.38
2023-04-24T09:49:50.340Z,15.01
2023-04-24T09:54:56.101Z,15.44
2023-04-24T10:00:01.101Z,15.06
2023-04-24T10:05:05.188Z,15.33
2023-04-24T10:10:10.224Z,15.31
2023-04-24T10:15:16.677Z,15.25
2023-04-24T10:20:24.129Z,15.57
2023-04-24T10:25:29.579Z,15.29
2023-04-24T10:30:37.258Z,15.14
2023-04-24T10:35:46.636Z,15.17
2023-04-24T10:40:50.327Z,15.74
2023-04-24T10:46:05.628Z,15.90
2023-04-24T10:51:15.193Z,16.64
2023-04-24T10:56:19.397Z,16.61
2023-04-24T11:01:28.748Z,16.25
2023-04-24T11:06:33.919Z,16.92
2023-04-24T11:11:41.181Z,16.57
2023-04-24T11:16:48.049Z,15.47
2023-04-24T11:21:57.699Z,15.57
2023-04-24T11:27:07.855Z,16.05
2023-04-24T11:32:20.959Z,16.09
2023-04-24T11:37:26.215Z,16.47
2023-04-24T11:42:30.958Z,17.10
2023-04-24T11:47:35.905Z,16.88
2023-04-24T11:52:41.176Z,16.95
2023-04-24T11:57:45.878Z,17.08
2023-04-24T12:02:51.681Z,17.09
2023-04-24T12:07:56.301Z,17.17
2023-04-24T12:13:01.594Z,17.40
2023-04-24T12:18:06.714Z,17.40
2023-04-24T12:23:10.362Z,17.64
2023-04-24T12:28:15.224Z,17.23
2023-04-24T12:33:21.919Z,17.08
2023-04-24T12:38:27.691Z,17.33
2023-04-24T12:43:31.284Z,17.44
2023-04-24T12:48:36.272Z,17.81
2023-04-24T12:53:40.114Z,18.35
2023-04-24T12:58:43.839Z,18.55
2023-04-24T13:03:48.922Z,18.46
2023-04-24T13:08:52.735Z,18.93
2023-04-24T13:13:56.941Z,18.76
2023-04-24T13:19:01.784Z,18.83
2023-04-24T13:24:06.088Z,19.08
2023-04-24T13:29:09.974Z,18.90
2023-04-24T13:34:15.037Z,18.82
2023-04-24T13:39:18.592Z,18.41
2023-04-24T13:44:23.483Z,18.48
2023-04-24T13:49:29.354Z,18.70
2023-04-24T13:54:32.894Z,18.60
2023-04-24T13:59:36.451Z,18.84
2023-04-24T14:04:41.832Z,19.09
2023-04-24T14:09:45.677Z,18.84
2023-04-24T14:14:50.368Z,18.52
2023-04-24T14:19:57.415Z,18.78
2023-04-24T14:25:01.068Z,18.38
2023-04-24T14:30:05.587Z,18.28
2023-04-24T14:35:11.660Z,18.27
2023-04-24T14:40:29.797Z,18.29
2023-04-24T14:45:39.642Z,18.32
2023-04-24T14:50:44.722Z,18.58
2023-04-24T14:55:51.352Z,18.88
2023-04-24T15:00:55.639Z,18.84
2023-04-24T15:06:00.721Z,19.06
2023-04-24T15:11:04.345Z,19.18
2023-04-24T15:16:08.419Z,19.20
2023-04-24T15:21:14.328Z,19.62
2023-04-24T15:26:17.866Z,19.78
2023-04-24T15:31:23.435Z,19.51
2023-04-24T15:36:28.759Z,19.70
2023-04-24T15:41:32.788Z,19.95
2023-04-24T15:46:37.363Z,19.53
2023-04-24T15:51:42.484Z,19.66
2023-04-24T15:56:46.074Z,20.20
2023-04-24T16:01:50.016Z,19.81
2023-04-24T16:06:55.250Z,20.23
2023-04-24T16:11:58.820Z,20.41
2023-04-24T16:17:05.756Z,20.44
2023-04-24T16:22:10.650Z,20.53
2023-04-24T16:27:14.112Z,20.63
2023-04-24T16:32:17.667Z,20.67
2023-04-24T16:37:22.717Z,21.00
2023-04-24T16:42:26.586Z,21.36
2023-04-24T16:47:30.265Z,21.72
2023-04-24T16:52:35.321Z,21.99
2023-04-24T16:57:38.969Z,22.00
2023-04-24T17:02:42.562Z,22.18
2023-04-24T17:07:47.574Z,22.31
2023-04-24T17:12:51.226Z,22.82
2023-04-24T17:17:55.125Z,23.12
2023-04-24T17:23:00.099Z,23.24
2023-04-24T17:28:03.849Z,23.40
2023-04-24T17:33:07.431Z,23.49
2023-04-24T17:38:12.341Z,23.72
2023-04-24T17:43:18.274Z,24.21
2023-04-24T17:48:22.493Z,24.43
2023-04-24T17:53:27.692Z,24.49
2023-04-24T17:58:31.801Z,24.67
2023-04-24T18:03:35.413Z,24.82
2023-04-24T18:08:40.517Z,24.87
2023-04-24T18:13:44.160Z,24.93
2023-04-24T18:18:47.926Z,25.39
2023-04-24T18:23:53.100Z,25.52
2023-04-24T18:28:56.681Z,25.83
2023-04-24T18:34:00.401Z,25.94
2023-04-24T18:39:05.484Z,26.03
2023-04-24T18:44:09.347Z,25.54
2023-04-24T18:49:12.819Z,25.90
2023-04-24T18:54:17.875Z,26.28
2023-04-24T18:59:21.555Z,26.06
2023-04-24T19:04:25.232Z,26.32
2023-04-24T19:09:30.141Z,26.00
2023-04-24T19:14:33.693Z,26.04
2023-04-24T19:19:37.385Z,26.31
2023-04-24T19:24:42.269Z,25.94
2023-04-24T19:29:46.174Z,25.92
2023-04-24T19:34:49.778Z,25.83
2023-04-24T19:39:54.788Z,25.70
2023-04-24T19:44:58.236Z,25.59
2023-04-24T19:50:01.725Z,25.77
2023-04-24T19:55:09.518Z,25.82
2023-04-24T20:00:14.231Z,25.71
2023-04-24T20:05:17.992Z,26.17
2023-04-24T20:10:23.064Z,27.35
2023-04-24T20:15:26.699Z,27.45
2023-04-24T20:20:30.252Z,27.48
2023-04-24T20:25:36.340Z,27.74
2023-04-24T20:30:39.911Z,27.91
2023-04-24T20:35:43.398Z,27.79
2023-04-24T20:45:55.940Z,28.15
2023-04-24T20:50:59.437Z,27.99
2023-04-24T20:56:04.874Z,27.62
2023-04-24T21:01:08.708Z,27.82
2023-04-24T21:06:12.232Z,28.02
2023-04-24T21:11:17.116Z,28.13
2023-04-24T21:16:21.059Z,27.90
2023-04-24T21:21:25.370Z,27.73
2023-04-24T21:26:30.391Z,28.15
2023-04-24T21:31:33.981Z,28.83
2023-04-24T21:36:37.513Z,28.61
2023-04-24T21:41:42.866Z,30.04
2023-04-24T21:46:46.411Z,29.87
2023-04-24T21:51:49.957Z,31.06
2023-04-24T21:56:54.888Z,29.79
2023-04-24T22:01:58.529Z,29.71
2023-04-24T22:07:02.578Z,29.70
2023-04-24T22:12:08.007Z,29.25
2023-04-24T22:17:11.451Z,29.38
2023-04-24T22:22:15.174Z,29.04
2023-04-24T22:27:20.198Z,29.35
2023-04-24T22:32:23.882Z,29.52
2023-04-24T22:37:27.643Z,30.12
2023-04-24T22:42:32.626Z,30.06
2023-04-24T22:47:36.171Z,30.87
2023-04-24T22:52:41.219Z,31.00
2023-04-24T22:57:46.179Z,30.75
2023-04-24T23:02:49.858Z,31.35
2023-04-24T23:07:53.435Z,31.24
2023-04-24T23:12:58.499Z,32.27
2023-04-24T23:18:02.148Z,32.15
2023-04-24T23:23:05.875Z,32.01
2023-04-24T23:28:10.858Z,32.37
2023-04-24T23:33:15.680Z,32.38
2023-04-24T23:38:19.227Z,33.27
2023-04-24T23:43:24.269Z,32.55
2023-04-24T23:48:27.932Z,32.70
2023-04-24T23:53:31.604Z,32.31
2023-04-24T23:58:36.969Z,32.78
